createdAt,value
2018-04-24T00:00:13.709Z,0.00
2018-04-24T00:01:13.639Z,0.00
2018-04-24T00:02:13.592Z,0.00
2018-04-24T00:03:13.542Z,0.00
2018-04-24T00:04:13.496Z,0.00
2018-04-24T00:05:13.488Z,0.00
2018-04-24T00:06:13.397Z,0.00
2018-04-24T00:07:13.352Z,0.00
2018-04-24T00:08:13.303Z,0.00
2018-04-24T00:09:13.258Z,0.00
2018-04-24T00:10:13.229Z,0.00
2018-04-24T00:11:13.180Z,0.00
2018-04-24T00:12:13.107Z,0.00
2018-04-24T00:13:13.058Z,0.00
2018-04-24T00:14:13.011Z,0.00
2018-04-24T00:15:12.993Z,0.00
2018-04-24T00:16:12.916Z,0.00
2018-04-24T00:17:12.870Z,0.00
2018-04-24T00:18:12.822Z,0.00
2018-04-24T00:19:12.774Z,0.00
2018-04-24T00:20:12.747Z,0.00
2018-04-24T00:21:12.671Z,0.00
2018-04-24T00:22:12.625Z,0.00
2018-04-24T00:23:12.578Z,0.00
2018-04-24T00:24:12.529Z,0.00
2018-04-24T00:25:12.488Z,0.00
2018-04-24T00:26:12.519Z,0.00
2018-04-24T00:27:12.384Z,0.00
2018-04-24T00:28:12.341Z,0.00
2018-04-24T00:29:12.287Z,0.00
2018-04-24T00:30:12.245Z,0.00
2018-04-24T00:31:12.221Z,0.00
2018-04-24T00:32:12.157Z,0.00
2018-04-24T00:33:12.102Z,0.00
2018-04-24T00:34:12.050Z,0.00
2018-04-24T00:35:12.005Z,0.00
2018-04-24T00:36:11.982Z,0.00
2018-04-24T00:37:11.904Z,0.00
2018-04-24T00:38:11.861Z,0.00
2018-04-24T00:39:11.811Z,0.00
2018-04-24T00:40:11.762Z,0.00
2018-04-24T00:41:11.738Z,0.00
2018-04-24T00:42:11.668Z,0.00
2018-04-24T00:43:11.619Z,0.00
2018-04-24T00:44:11.567Z,0.00
2018-04-24T00:45:11.520Z,0.00
2018-04-24T00:46:11.495Z,0.00
2018-04-24T00:47:11.423Z,0.00
2018-04-24T00:48:11.376Z,0.00
2018-04-24T00:49:11.327Z,0.00
2018-04-24T00:50:11.276Z,0.00
2018-04-24T00:51:11.249Z,0.00
2018-04-24T00:52:11.179Z,0.00
2018-04-24T00:53:11.134Z,0.00
2018-04-24T00:54:11.088Z,0.00
2018-04-24T00:55:11.037Z,0.00
2018-04-24T00:56:11.010Z,0.00
2018-04-24T00:57:10.940Z,0.00
2018-04-24T00:58:10.890Z,0.00
2018-04-24T00:59:10.842Z,0.00
2018-04-24T01:00:10.795Z,0.00
2018-04-24T01:01:10.769Z,0.00
2018-04-24T01:02:10.696Z,0.00
2018-04-24T01:03:10.648Z,0.00
2018-04-24T01:04:10.601Z,0.00
2018-04-24T01:05:10.550Z,0.00
2018-04-24T01:06:10.534Z,0.00
2018-04-24T01:07:10.455Z,0.00
2018-04-24T01:08:10.407Z,0.00
2018-04-24T01:09:10.357Z,0.00
2018-04-24T01:10:10.310Z,0.00
2018-04-24T01:11:10.287Z,0.00
2018-04-24T01:12:10.215Z,0.00
2018-04-24T01:13:10.169Z,0.00
2018-04-24T01:14:10.112Z,0.00
2018-04-24T01:15:10.070Z,0.00
2018-04-24T01:16:10.046Z,0.00
2018-04-24T01:17:09.973Z,0.00
2018-04-24T01:18:09.923Z,0.00
2018-04-24T01:19:09.875Z,0.00
2018-04-24T01:20:09.829Z,0.00
2018-04-24T01:21:09.801Z,0.00
2018-04-24T01:22:09.730Z,0.00
2018-04-24T01:23:09.683Z,0.00
2018-04-24T01:24:09.634Z,0.00
2018-04-24T01:25:09.589Z,0.00
2018-04-24T01:26:09.561Z,0.00
2018-04-24T01:27:09.488Z,0.00
2018-04-24T01:28:09.441Z,0.00
2018-04-24T01:29:09.391Z,0.00
2018-04-24T01:30:09.344Z,0.00
2018-04-24T01:31:09.320Z,0.00
2018-04-24T01:32:09.248Z,0.00
2018-04-24T01:33:09.204Z,0.00
2018-04-24T01:34:09.150Z,0.00
2018-04-24T01:35:09.102Z,0.00
2018-04-24T01:36:09.078Z,0.00
2018-04-24T01:37:09.005Z,0.00
2018-04-24T01:38:08.961Z,0.00
2018-04-24T01:39:08.913Z,0.00
2018-04-24T01:40:08.861Z,0.00
2018-04-24T01:41:10.637Z,0.00
2018-04-24T01:42:08.764Z,0.00
2018-04-24T01:43:08.717Z,0.00
2018-04-24T01:44:10.660Z,0.00
2018-04-24T01:45:08.619Z,0.00
2018-04-24T01:46:08.568Z,0.00
2018-04-24T01:47:08.529Z,0.00
2018-04-24T01:48:08.471Z,0.00
2018-04-24T01:49:08.424Z,0.00
2018-04-24T01:50:08.400Z,0.00
2018-04-24T01:51:08.330Z,0.00
2018-04-24T01:52:08.278Z,0.00
2018-04-24T01:53:08.229Z,0.00
2018-04-24T01:54:08.184Z,0.00
2018-04-24T01:55:08.160Z,0.00
2018-04-24T01:56:08.089Z,0.00
2018-04-24T01:57:08.039Z,0.00
2018-04-24T01:58:08.005Z,0.00
2018-04-24T01:59:07.938Z,0.00
2018-04-24T02:00:07.973Z,0.00
2018-04-24T02:01:07.846Z,0.00
2018-04-24T02:02:07.795Z,0.00
2018-04-24T02:03:07.749Z,0.00
2018-04-24T02:04:07.700Z,0.00
2018-04-24T02:05:07.676Z,0.00
2018-04-24T02:06:07.602Z,0.00
2018-04-24T02:07:07.554Z,0.00
2018-04-24T02:08:07.512Z,0.00
2018-04-24T02:09:07.457Z,0.00
2018-04-24T02:10:07.435Z,0.00
2018-04-24T02:11:07.363Z,0.00
2018-04-24T02:12:07.310Z,0.00
2018-04-24T02:13:07.263Z,0.00
2018-04-24T02:14:07.212Z,0.00
2018-04-24T02:15:07.193Z,0.00
2018-04-24T02:16:07.120Z,0.00
2018-04-24T02:17:07.066Z,0.00
2018-04-24T02:18:07.016Z,0.00
2018-04-24T02:19:06.974Z,0.00
2018-04-24T02:20:06.953Z,0.00
2018-04-24T02:21:06.875Z,0.00
2018-04-24T02:22:06.826Z,0.00
2018-04-24T02:23:06.776Z,0.00
2018-04-24T02:24:06.729Z,0.00
2018-04-24T02:25:06.703Z,0.00
2018-04-24T02:26:06.632Z,0.00
2018-04-24T02:27:06.588Z,0.00
2018-04-24T02:28:06.539Z,0.00
2018-04-24T02:29:06.486Z,0.00
2018-04-24T02:30:06.481Z,0.00
2018-04-24T02:31:06.393Z,0.00
2018-04-24T02:32:06.347Z,0.00
2018-04-24T02:33:06.298Z,0.00
2018-04-24T02:34:06.252Z,0.00
2018-04-24T02:35:06.198Z,0.00
2018-04-24T02:36:06.174Z,0.00
2018-04-24T02:37:06.099Z,0.00
2018-04-24T02:38:06.053Z,0.00
2018-04-24T02:39:06.008Z,0.00
2018-04-24T02:40:05.958Z,0.00
2018-04-24T02:41:06.132Z,0.00
2018-04-24T02:42:05.865Z,0.00
2018-04-24T02:43:05.809Z,0.00
2018-04-24T02:44:05.762Z,0.00
2018-04-24T02:45:05.725Z,0.00
2018-04-24T02:46:05.692Z,0.00
2018-04-24T02:47:05.619Z,0.00
2018-04-24T02:48:05.576Z,0.00
2018-04-24T02:49:05.519Z,0.00
2018-04-24T02:50:05.474Z,0.00
2018-04-24T02:51:05.446Z,0.00
2018-04-24T02:52:05.376Z,0.00
2018-04-24T02:53:05.333Z,0.00
2018-04-24T02:54:05.276Z,0.00
2018-04-24T02:55:05.234Z,0.00
2018-04-24T02:56:05.205Z,0.00
2018-04-24T02:57:05.135Z,0.00
2018-04-24T02:58:05.082Z,0.00
2018-04-24T02:59:05.039Z,0.00
2018-04-24T03:00:04.987Z,0.00
2018-04-24T03:01:04.965Z,0.00
2018-04-24T03:02:04.891Z,0.00
2018-04-24T03:03:04.844Z,0.00
2018-04-24T03:04:04.794Z,0.00
2018-04-24T03:05:04.744Z,0.00
2018-04-24T03:06:04.719Z,0.00
2018-04-24T03:07:04.646Z,0.00
2018-04-24T03:08:04.598Z,0.00
2018-04-24T03:09:04.550Z,0.00
2018-04-24T03:10:04.505Z,0.00
2018-04-24T03:11:04.478Z,0.00
2018-04-24T03:12:04.405Z,0.00
2018-04-24T03:13:04.364Z,0.00
2018-04-24T03:14:04.307Z,0.00
2018-04-24T03:15:04.261Z,0.00
2018-04-24T03:16:04.238Z,0.00
2018-04-24T03:17:04.161Z,0.00
2018-04-24T03:18:04.112Z,0.00
2018-04-24T03:19:04.071Z,0.00
2018-04-24T03:20:04.018Z,0.00
2018-04-24T03:21:04.001Z,0.00
2018-04-24T03:22:03.937Z,0.00
2018-04-24T03:23:03.878Z,0.00
2018-04-24T03:24:03.875Z,0.00
2018-04-24T03:25:03.783Z,0.00
2018-04-24T03:26:03.735Z,0.00
2018-04-24T03:27:03.706Z,0.00
2018-04-24T03:28:03.639Z,0.00
2018-04-24T03:29:03.583Z,0.00
2018-04-24T03:30:03.533Z,0.00
2018-04-24T03:31:03.485Z,0.00
2018-04-24T03:32:03.465Z,0.00
2018-04-24T03:33:03.395Z,0.00
2018-04-24T03:34:03.345Z,0.00
2018-04-24T03:35:03.294Z,0.00
2018-04-24T03:36:03.246Z,0.00
2018-04-24T03:37:03.222Z,0.00
2018-04-24T03:38:03.147Z,0.00
2018-04-24T03:39:03.104Z,0.00
2018-04-24T03:40:03.053Z,0.00
2018-04-24T03:41:03.007Z,0.00
2018-04-24T03:42:02.985Z,4.00
2018-04-24T03:43:02.913Z,4.00
2018-04-24T03:44:02.866Z,0.00
2018-04-24T03:45:02.811Z,4.00
2018-04-24T03:46:02.766Z,4.00
2018-04-24T03:47:02.739Z,4.00
2018-04-24T03:48:02.666Z,4.00
2018-04-24T03:49:02.623Z,8.00
2018-04-24T03:50:02.570Z,8.00
2018-04-24T03:51:02.522Z,8.00
2018-04-24T03:52:02.499Z,12.00
2018-04-24T03:53:02.425Z,12.00
2018-04-24T03:54:02.374Z,16.00
2018-04-24T03:55:02.330Z,12.00
2018-04-24T03:56:02.279Z,16.00
2018-04-24T03:57:02.255Z,20.00
2018-04-24T03:58:02.189Z,24.00
2018-04-24T03:59:02.134Z,28.00
2018-04-24T04:00:02.094Z,28.00
2018-04-24T04:01:02.038Z,36.00
2018-04-24T04:02:02.019Z,40.00
2018-04-24T04:03:01.940Z,44.00
2018-04-24T04:04:01.894Z,48.00
2018-04-24T04:05:01.843Z,52.00
2018-04-24T04:06:01.795Z,60.00
2018-04-24T04:07:01.773Z,68.00
2018-04-24T04:08:01.703Z,72.00
2018-04-24T04:09:01.650Z,80.00
2018-04-24T04:10:01.604Z,84.00
2018-04-24T04:11:01.554Z,96.00
2018-04-24T04:12:01.531Z,104.00
2018-04-24T04:13:01.458Z,116.00
2018-04-24T04:14:01.411Z,132.00
2018-04-24T04:15:01.360Z,152.00
2018-04-24T04:16:01.404Z,176.00
2018-04-24T04:17:01.287Z,192.00
2018-04-24T04:18:01.213Z,208.00
2018-04-24T04:19:01.166Z,220.00
2018-04-24T04:20:01.119Z,232.00
2018-04-24T04:21:01.066Z,244.00
2018-04-24T04:22:01.048Z,264.00
2018-04-24T04:23:00.977Z,276.00
2018-04-24T04:24:00.923Z,296.00
2018-04-24T04:25:00.876Z,308.00
2018-04-24T04:26:00.828Z,336.00
2018-04-24T04:27:00.825Z,360.00
2018-04-24T04:28:00.736Z,380.00
2018-04-24T04:29:00.682Z,396.00
2018-04-24T04:30:00.637Z,420.00
2018-04-24T04:31:00.585Z,448.00
2018-04-24T04:32:00.535Z,488.00
2018-04-24T04:33:00.569Z,524.00
2018-04-24T04:34:00.443Z,564.00
2018-04-24T04:35:00.396Z,612.00
2018-04-24T04:36:00.343Z,668.00
2018-04-24T04:37:00.295Z,712.00
2018-04-24T04:38:00.282Z,728.00
2018-04-24T04:39:00.203Z,712.00
2018-04-24T04:40:00.148Z,728.00
2018-04-24T04:41:00.102Z,760.00
2018-04-24T04:42:00.053Z,796.00
2018-04-24T04:43:00.034Z,828.00
2018-04-24T04:43:59.956Z,844.00
2018-04-24T04:44:59.909Z,884.00
2018-04-24T04:45:59.859Z,948.00
2018-04-24T04:46:59.814Z,1000.00
2018-04-24T04:47:59.794Z,1032.00
2018-04-24T04:48:59.719Z,1084.00
2018-04-24T04:49:59.666Z,1124.00
2018-04-24T04:50:59.618Z,1092.00
2018-04-24T04:51:59.575Z,1068.00
2018-04-24T04:52:59.544Z,1060.00
2018-04-24T04:53:59.476Z,1088.00
2018-04-24T04:54:59.427Z,1108.00
2018-04-24T04:55:59.375Z,1104.00
2018-04-24T04:56:59.329Z,1120.00
2018-04-24T04:57:59.302Z,1148.00
2018-04-24T04:58:59.243Z,1160.00
2018-04-24T04:59:59.183Z,1184.00
2018-04-24T05:00:59.136Z,1244.00
2018-04-24T05:01:59.088Z,1304.00
2018-04-24T05:02:59.082Z,1276.00
2018-04-24T05:03:58.991Z,1228.00
2018-04-24T05:04:58.942Z,1236.00
2018-04-24T05:05:58.896Z,1248.00
2018-04-24T05:06:58.846Z,1260.00
2018-04-24T05:07:58.801Z,1272.00
2018-04-24T05:08:58.776Z,1288.00
2018-04-24T05:09:58.701Z,1288.00
2018-04-24T05:10:58.660Z,1264.00
2018-04-24T05:11:58.676Z,1236.00
2018-04-24T05:12:58.559Z,1212.00
2018-04-24T05:13:58.534Z,1228.00
2018-04-24T05:14:58.466Z,1256.00
2018-04-24T05:15:58.414Z,1276.00
2018-04-24T05:16:58.362Z,1288.00
2018-04-24T05:17:58.314Z,1324.00
2018-04-24T05:18:58.295Z,1348.00
2018-04-24T05:19:58.221Z,1360.00
2018-04-24T05:20:58.177Z,1412.00
2018-04-24T05:21:58.120Z,1448.00
2018-04-24T05:22:58.074Z,1476.00
2018-04-24T05:23:58.054Z,1476.00
2018-04-24T05:24:57.980Z,1428.00
2018-04-24T05:25:57.935Z,1380.00
2018-04-24T05:26:57.886Z,1356.00
2018-04-24T05:27:57.838Z,1404.00
2018-04-24T05:28:57.812Z,1496.00
2018-04-24T05:29:57.736Z,1660.00
2018-04-24T05:30:57.693Z,1704.00
2018-04-24T05:31:57.644Z,1688.00
2018-04-24T05:32:57.700Z,1688.00
2018-04-24T05:33:57.574Z,1712.00
2018-04-24T05:34:57.505Z,1732.00
2018-04-24T05:35:57.456Z,1816.00
2018-04-24T05:36:57.405Z,1952.00
2018-04-24T05:37:57.360Z,1996.00
2018-04-24T05:38:57.334Z,2084.00
2018-04-24T05:39:57.262Z,2260.00
2018-04-24T05:40:57.210Z,2416.00
2018-04-24T05:41:57.165Z,2428.00
2018-04-24T05:42:57.117Z,2316.00
2018-04-24T05:43:57.096Z,2276.00
2018-04-24T05:44:57.021Z,2272.00
2018-04-24T05:45:56.976Z,2232.00
2018-04-24T05:46:56.924Z,2424.00
2018-04-24T05:47:56.888Z,2528.00
2018-04-24T05:48:56.858Z,2484.00
2018-04-24T05:49:56.781Z,2584.00
2018-04-24T05:50:56.734Z,2700.00
2018-04-24T05:51:56.687Z,2780.00
2018-04-24T05:52:56.645Z,2872.00
2018-04-24T05:53:56.624Z,2992.00
2018-04-24T05:54:56.545Z,3028.00
2018-04-24T05:55:56.500Z,3008.00
2018-04-24T05:56:56.449Z,2908.00
2018-04-24T05:57:56.479Z,2768.00
2018-04-24T05:58:56.353Z,2632.00
2018-04-24T05:59:56.332Z,2572.00
2018-04-24T06:00:56.260Z,2472.00
2018-04-24T06:01:56.209Z,2256.00
2018-04-24T06:02:56.166Z,2092.00
2018-04-24T06:03:56.114Z,1892.00
2018-04-24T06:04:56.093Z,1796.00
2018-04-24T06:05:56.020Z,1880.00
2018-04-24T06:06:55.971Z,1860.00
2018-04-24T06:07:55.924Z,1792.00
2018-04-24T06:08:55.877Z,1800.00
2018-04-24T06:09:55.856Z,1788.00
2018-04-24T06:10:55.784Z,1856.00
2018-04-24T06:11:55.734Z,2068.00
2018-04-24T06:12:55.683Z,2176.00
2018-04-24T06:13:55.641Z,2264.00
2018-04-24T06:14:55.615Z,2196.00
2018-04-24T06:15:55.544Z,1972.00
2018-04-24T06:16:55.499Z,1408.00
2018-04-24T06:17:55.450Z,2196.00
2018-04-24T06:18:55.405Z,2816.00
2018-04-24T06:19:55.389Z,2860.00
2018-04-24T06:20:55.306Z,2932.00
2018-04-24T06:21:55.262Z,3280.00
2018-04-24T06:22:55.206Z,3276.00
2018-04-24T06:23:55.220Z,3084.00
2018-04-24T06:24:55.116Z,2948.00
2018-04-24T06:25:55.090Z,2800.00
2018-04-24T06:26:55.019Z,3008.00
2018-04-24T06:27:54.969Z,2980.00
2018-04-24T06:28:54.919Z,3284.00
2018-04-24T06:29:54.878Z,3428.00
2018-04-24T06:30:54.852Z,3688.00
2018-04-24T06:31:54.779Z,3500.00
2018-04-24T06:32:54.733Z,3144.00
2018-04-24T06:33:54.686Z,3528.00
2018-04-24T06:34:54.642Z,3588.00
2018-04-24T06:35:54.666Z,3500.00
2018-04-24T06:36:54.541Z,3428.00
2018-04-24T06:37:54.498Z,3604.00
2018-04-24T06:38:54.445Z,3784.00
2018-04-24T06:39:54.401Z,3776.00
2018-04-24T06:40:54.388Z,3804.00
2018-04-24T06:41:54.304Z,3676.00
2018-04-24T06:42:54.257Z,3716.00
2018-04-24T06:43:54.211Z,3668.00
2018-04-24T06:44:54.162Z,3392.00
2018-04-24T06:45:54.138Z,3704.00
2018-04-24T06:46:54.065Z,4004.00
2018-04-24T06:47:54.018Z,4148.00
2018-04-24T06:48:53.969Z,4168.00
2018-04-24T06:49:53.926Z,4296.00
2018-04-24T06:50:53.900Z,4772.00
2018-04-24T06:51:53.828Z,5184.00
2018-04-24T06:52:53.781Z,4740.00
2018-04-24T06:53:53.732Z,4896.00
2018-04-24T06:54:53.686Z,3856.00
2018-04-24T06:55:53.663Z,4092.00
2018-04-24T06:56:53.589Z,3988.00
2018-04-24T06:57:53.544Z,3280.00
2018-04-24T06:58:53.494Z,3116.00
2018-04-24T06:59:53.452Z,2916.00
2018-04-24T07:00:53.490Z,3344.00
2018-04-24T07:01:53.351Z,3952.00
2018-04-24T07:02:53.307Z,4888.00
2018-04-24T07:03:53.258Z,4640.00
2018-04-24T07:04:53.212Z,4412.00
2018-04-24T07:05:53.192Z,4160.00
2018-04-24T07:06:53.118Z,4164.00
2018-04-24T07:07:53.068Z,4580.00
2018-04-24T07:08:53.021Z,5000.00
2018-04-24T07:09:52.973Z,4628.00
2018-04-24T07:10:52.956Z,4592.00
2018-04-24T07:11:52.883Z,4040.00
2018-04-24T07:12:52.832Z,3652.00
2018-04-24T07:13:52.789Z,3868.00
2018-04-24T07:14:52.736Z,4496.00
2018-04-24T07:15:52.718Z,4712.00
2018-04-24T07:16:52.719Z,3380.00
2018-04-24T07:17:52.595Z,2944.00
2018-04-24T07:18:52.546Z,3028.00
2018-04-24T07:19:52.500Z,2996.00
2018-04-24T07:20:52.499Z,3228.00
2018-04-24T07:21:52.404Z,2916.00
2018-04-24T07:22:52.356Z,2788.00
2018-04-24T07:23:52.313Z,3012.00
2018-04-24T07:24:52.264Z,3604.00
2018-04-24T07:25:52.217Z,3924.00
2018-04-24T07:26:52.194Z,4588.00
2018-04-24T07:27:52.123Z,3624.00
2018-04-24T07:28:52.075Z,3984.00
2018-04-24T07:29:52.030Z,4136.00
2018-04-24T07:30:51.980Z,3612.00
2018-04-24T07:31:51.961Z,4016.00
2018-04-24T07:32:51.934Z,3500.00
2018-04-24T07:33:51.839Z,3012.00
2018-04-24T07:34:51.795Z,2920.00
2018-04-24T07:35:51.747Z,3984.00
2018-04-24T07:36:51.724Z,3436.00
2018-04-24T07:37:51.651Z,3732.00
2018-04-24T07:38:51.601Z,3492.00
2018-04-24T07:39:51.555Z,4232.00
2018-04-24T07:40:51.509Z,4184.00
2018-04-24T07:41:51.960Z,4168.00
2018-04-24T07:42:51.416Z,3520.00
2018-04-24T07:43:51.362Z,3512.00
2018-04-24T07:44:51.317Z,3968.00
2018-04-24T07:45:51.273Z,3636.00
2018-04-24T07:46:51.325Z,3828.00
2018-04-24T07:47:51.174Z,4228.00
2018-04-24T07:48:51.126Z,3772.00
2018-04-24T07:49:51.079Z,3904.00
2018-04-24T07:50:51.030Z,3504.00
2018-04-24T07:51:51.008Z,3652.00
2018-04-24T07:52:50.959Z,3868.00
2018-04-24T07:53:50.887Z,4316.00
2018-04-24T07:54:50.843Z,4700.00
2018-04-24T07:55:50.796Z,5652.00
2018-04-24T07:56:50.743Z,5896.00
2018-04-24T07:57:50.724Z,6356.00
2018-04-24T07:58:50.655Z,5996.00
2018-04-24T07:59:50.608Z,5448.00
2018-04-24T08:00:50.562Z,4984.00
2018-04-24T08:01:50.511Z,4776.00
2018-04-24T08:02:50.486Z,4544.00
2018-04-24T08:03:50.418Z,4496.00
2018-04-24T08:04:50.369Z,5468.00
2018-04-24T08:05:50.320Z,4660.00
2018-04-24T08:06:50.271Z,4732.00
2018-04-24T08:07:50.253Z,4428.00
2018-04-24T08:08:50.183Z,4204.00
2018-04-24T08:09:50.133Z,4408.00
2018-04-24T08:10:50.085Z,4800.00
2018-04-24T08:11:50.043Z,4536.00
2018-04-24T08:12:50.016Z,4400.00
2018-04-24T08:13:49.941Z,4428.00
2018-04-24T08:14:49.897Z,4704.00
2018-04-24T08:15:49.844Z,4660.00
2018-04-24T08:16:49.800Z,5044.00
2018-04-24T08:17:49.779Z,4708.00
2018-04-24T08:18:49.708Z,4760.00
2018-04-24T08:19:49.663Z,4612.00
2018-04-24T08:20:49.607Z,4448.00
2018-04-24T08:21:49.570Z,5256.00
2018-04-24T08:22:49.559Z,4896.00
2018-04-24T08:23:49.469Z,4988.00
2018-04-24T08:24:49.422Z,4944.00
2018-04-24T08:25:49.372Z,5068.00
2018-04-24T08:26:49.329Z,5096.00
2018-04-24T08:27:49.307Z,4864.00
2018-04-24T08:28:49.234Z,4784.00
2018-04-24T08:29:49.189Z,4744.00
2018-04-24T08:30:49.142Z,5092.00
2018-04-24T08:31:49.091Z,5380.00
2018-04-24T08:32:49.069Z,4988.00
2018-04-24T08:33:49.002Z,4780.00
2018-04-24T08:34:48.949Z,4732.00
2018-04-24T08:35:48.907Z,4936.00
2018-04-24T08:36:48.859Z,4808.00
2018-04-24T08:37:48.836Z,4676.00
2018-04-24T08:38:48.764Z,4676.00
2018-04-24T08:39:48.715Z,4588.00
2018-04-24T08:40:48.678Z,4440.00
2018-04-24T08:41:48.627Z,4672.00
2018-04-24T08:42:48.597Z,5232.00
2018-04-24T08:43:48.525Z,5080.00
2018-04-24T08:44:48.483Z,5784.00
2018-04-24T08:45:48.434Z,5772.00
2018-04-24T08:46:48.390Z,5568.00
2018-04-24T08:47:48.384Z,5804.00
2018-04-24T08:48:48.293Z,5472.00
2018-04-24T08:49:48.243Z,5680.00
2018-04-24T08:50:48.200Z,5540.00
2018-04-24T08:51:48.155Z,5556.00
2018-04-24T08:52:48.147Z,6048.00
2018-04-24T08:53:48.058Z,6420.00
2018-04-24T08:54:48.012Z,5540.00
2018-04-24T08:55:47.961Z,5672.00
2018-04-24T08:56:47.918Z,5272.00
2018-04-24T08:57:47.870Z,5004.00
2018-04-24T08:58:47.846Z,4812.00
2018-04-24T08:59:47.786Z,4480.00
2018-04-24T09:00:47.730Z,5064.00
2018-04-24T09:01:47.681Z,4788.00
2018-04-24T09:02:47.632Z,4864.00
2018-04-24T09:03:47.615Z,5068.00
2018-04-24T09:04:47.537Z,5308.00
2018-04-24T09:05:47.494Z,5768.00
2018-04-24T09:06:47.444Z,5952.00
2018-04-24T09:07:47.398Z,5444.00
2018-04-24T09:08:47.402Z,4892.00
2018-04-24T09:09:47.306Z,5108.00
2018-04-24T09:10:47.259Z,5132.00
2018-04-24T09:11:47.217Z,5112.00
2018-04-24T09:12:47.169Z,4876.00
2018-04-24T09:13:47.144Z,4664.00
2018-04-24T09:14:47.075Z,4708.00
2018-04-24T09:15:47.027Z,5644.00
2018-04-24T09:16:46.979Z,6668.00
2018-04-24T09:17:46.932Z,7104.00
2018-04-24T09:18:46.910Z,6152.00
2018-04-24T09:19:46.842Z,6708.00
2018-04-24T09:20:46.791Z,6048.00
2018-04-24T09:21:46.746Z,5760.00
2018-04-24T09:22:46.696Z,5888.00
2018-04-24T09:23:46.674Z,5900.00
2018-04-24T09:24:46.607Z,6116.00
2018-04-24T09:25:46.554Z,6540.00
2018-04-24T09:26:46.514Z,6908.00
2018-04-24T09:27:46.462Z,6232.00
2018-04-24T09:28:46.443Z,6652.00
2018-04-24T09:29:46.370Z,7220.00
2018-04-24T09:30:46.322Z,7528.00
2018-04-24T09:31:46.277Z,8200.00
2018-04-24T09:32:46.227Z,8508.00
2018-04-24T09:33:46.233Z,7848.00
2018-04-24T09:34:46.156Z,6312.00
2018-04-24T09:35:46.088Z,7540.00
2018-04-24T09:36:46.043Z,8988.00
2018-04-24T09:37:45.996Z,9064.00
2018-04-24T09:38:45.977Z,8492.00
2018-04-24T09:39:45.906Z,8844.00
2018-04-24T09:40:45.858Z,8472.00
2018-04-24T09:41:45.812Z,7384.00
2018-04-24T09:42:45.771Z,7548.00
2018-04-24T09:43:45.746Z,8304.00
2018-04-24T09:44:45.674Z,7228.00
2018-04-24T09:45:45.627Z,7808.00
2018-04-24T09:46:45.585Z,8236.00
2018-04-24T09:47:45.539Z,8412.00
2018-04-24T09:48:45.514Z,7984.00
2018-04-24T09:49:45.461Z,8356.00
2018-04-24T09:50:45.394Z,7432.00
2018-04-24T09:51:45.351Z,7044.00
2018-04-24T09:52:45.322Z,7516.00
2018-04-24T09:53:45.284Z,8276.00
2018-04-24T09:54:45.206Z,8176.00
2018-04-24T09:55:45.165Z,7044.00
2018-04-24T09:56:45.153Z,7556.00
2018-04-24T09:57:45.076Z,8428.00
2018-04-24T09:58:45.051Z,7936.00
2018-04-24T09:59:44.981Z,6640.00
2018-04-24T10:00:44.934Z,7472.00
2018-04-24T10:01:44.885Z,9424.00
2018-04-24T10:02:44.840Z,9240.00
2018-04-24T10:03:44.817Z,7976.00
2018-04-24T10:04:44.755Z,7848.00
2018-04-24T10:05:44.700Z,8572.00
2018-04-24T10:06:44.657Z,8684.00
2018-04-24T10:07:44.725Z,7800.00
2018-04-24T10:08:44.593Z,7372.00
2018-04-24T10:09:44.521Z,7176.00
2018-04-24T10:10:44.472Z,7200.00
2018-04-24T10:11:44.424Z,6992.00
2018-04-24T10:12:44.381Z,6276.00
2018-04-24T10:13:44.428Z,6312.00
2018-04-24T10:14:44.288Z,7360.00
2018-04-24T10:15:44.244Z,8464.00
2018-04-24T10:16:44.199Z,9796.00
2018-04-24T10:17:44.151Z,9944.00
2018-04-24T10:18:44.106Z,7896.00
2018-04-24T10:19:44.160Z,8496.00
2018-04-24T10:20:44.018Z,8644.00
2018-04-24T10:21:43.966Z,7676.00
2018-04-24T10:22:43.921Z,7712.00
2018-04-24T10:23:43.880Z,7164.00
2018-04-24T10:24:43.856Z,6728.00
2018-04-24T10:25:43.790Z,7212.00
2018-04-24T10:26:43.739Z,6284.00
2018-04-24T10:27:43.693Z,5272.00
2018-04-24T10:28:43.646Z,4852.00
2018-04-24T10:29:43.623Z,4712.00
2018-04-24T10:30:43.556Z,4588.00
2018-04-24T10:31:43.508Z,4212.00
2018-04-24T10:32:43.462Z,4196.00
2018-04-24T10:33:43.423Z,3884.00
2018-04-24T10:34:43.396Z,4124.00
2018-04-24T10:35:43.324Z,4148.00
2018-04-24T10:36:43.281Z,4096.00
2018-04-24T10:37:43.232Z,4156.00
2018-04-24T10:38:43.192Z,4148.00
2018-04-24T10:39:43.174Z,4248.00
2018-04-24T10:40:43.094Z,4284.00
2018-04-24T10:41:43.051Z,4332.00
2018-04-24T10:42:43.004Z,4092.00
2018-04-24T10:43:43.023Z,4252.00
2018-04-24T10:44:42.936Z,4296.00
2018-04-24T10:45:42.860Z,4164.00
2018-04-24T10:46:42.819Z,4168.00
2018-04-24T10:47:42.771Z,3988.00
2018-04-24T10:48:42.725Z,4072.00
2018-04-24T10:49:42.706Z,4092.00
2018-04-24T10:50:42.635Z,4144.00
2018-04-24T10:51:42.616Z,4192.00
2018-04-24T10:52:42.541Z,4592.00
2018-04-24T10:53:42.490Z,4900.00
2018-04-24T10:54:42.479Z,4704.00
2018-04-24T10:55:42.408Z,5704.00
2018-04-24T10:56:42.357Z,5960.00
2018-04-24T10:57:42.313Z,5204.00
2018-04-24T10:58:42.265Z,4968.00
2018-04-24T10:59:42.241Z,5008.00
2018-04-24T11:00:42.229Z,4480.00
2018-04-24T11:01:42.125Z,4292.00
2018-04-24T11:02:42.079Z,4508.00
2018-04-24T11:03:42.030Z,4800.00
2018-04-24T11:04:42.008Z,5388.00
2018-04-24T11:05:41.940Z,5988.00
2018-04-24T11:06:41.942Z,6392.00
2018-04-24T11:07:41.849Z,8300.00
2018-04-24T11:08:41.805Z,8156.00
2018-04-24T11:09:41.785Z,9936.00
2018-04-24T11:10:41.707Z,10272.00
2018-04-24T11:11:41.663Z,9188.00
2018-04-24T11:12:41.619Z,8620.00
2018-04-24T11:13:41.570Z,9016.00
2018-04-24T11:14:41.549Z,8280.00
2018-04-24T11:15:41.485Z,7732.00
2018-04-24T11:16:41.436Z,9732.00
2018-04-24T11:17:41.387Z,13288.00
2018-04-24T11:18:41.343Z,13012.00
2018-04-24T11:19:41.318Z,11492.00
2018-04-24T11:20:41.248Z,9572.00
2018-04-24T11:21:41.217Z,9216.00
2018-04-24T11:22:41.215Z,7740.00
2018-04-24T11:23:41.105Z,7584.00
2018-04-24T11:24:41.081Z,7356.00
2018-04-24T11:25:41.018Z,8556.00
2018-04-24T11:26:41.044Z,7252.00
2018-04-24T11:27:40.925Z,7960.00
2018-04-24T11:28:40.882Z,8280.00
2018-04-24T11:29:40.859Z,8776.00
2018-04-24T11:30:40.785Z,9864.00
2018-04-24T11:31:40.748Z,10604.00
2018-04-24T11:32:40.695Z,9004.00
2018-04-24T11:33:40.655Z,8052.00
2018-04-24T11:34:40.639Z,7388.00
2018-04-24T11:35:40.562Z,7792.00
2018-04-24T11:36:40.606Z,8364.00
2018-04-24T11:37:40.473Z,6552.00
2018-04-24T11:38:40.431Z,7952.00
2018-04-24T11:39:40.405Z,10576.00
2018-04-24T11:40:40.333Z,8676.00
2018-04-24T11:41:40.327Z,7216.00
2018-04-24T11:42:40.258Z,8908.00
2018-04-24T11:43:40.202Z,12580.00
2018-04-24T11:44:40.173Z,13860.00
2018-04-24T11:45:40.107Z,16280.00
2018-04-24T11:46:40.061Z,11052.00
2018-04-24T11:47:40.015Z,11440.00
2018-04-24T11:48:40.016Z,11276.00
2018-04-24T11:49:39.984Z,11148.00
2018-04-24T11:50:39.880Z,9380.00
2018-04-24T11:51:39.832Z,9128.00
2018-04-24T11:52:39.790Z,9636.00
2018-04-24T11:53:39.744Z,10896.00
2018-04-24T11:54:39.719Z,16640.00
2018-04-24T11:55:39.656Z,13316.00
2018-04-24T11:56:39.607Z,13424.00
2018-04-24T11:57:39.571Z,10104.00
2018-04-24T11:58:39.518Z,12992.00
2018-04-24T11:59:39.501Z,11372.00
2018-04-24T12:00:39.428Z,9012.00
2018-04-24T12:01:39.384Z,7944.00
2018-04-24T12:02:39.424Z,10140.00
2018-04-24T12:03:39.298Z,13208.00
2018-04-24T12:04:39.276Z,13208.00
2018-04-24T12:05:39.207Z,13468.00
2018-04-24T12:06:39.158Z,7800.00
2018-04-24T12:07:39.116Z,7892.00
2018-04-24T12:08:39.067Z,10552.00
2018-04-24T12:09:39.046Z,11500.00
2018-04-24T12:10:38.978Z,9128.00
2018-04-24T12:11:38.937Z,8768.00
2018-04-24T12:12:38.891Z,7076.00
2018-04-24T12:13:38.846Z,7000.00
2018-04-24T12:14:38.824Z,7180.00
2018-04-24T12:15:38.825Z,4512.00
2018-04-24T12:16:38.713Z,5272.00
2018-04-24T12:17:38.662Z,4328.00
2018-04-24T12:18:38.620Z,5236.00
2018-04-24T12:19:38.598Z,5932.00
2018-04-24T12:20:38.529Z,7508.00
2018-04-24T12:21:38.485Z,6612.00
2018-04-24T12:22:38.447Z,6500.00
2018-04-24T12:23:38.429Z,6644.00
2018-04-24T12:24:38.370Z,5976.00
2018-04-24T12:25:38.306Z,6432.00
2018-04-24T12:26:38.260Z,5776.00
2018-04-24T12:27:38.215Z,5284.00